createdAt,value
2022-10-10T00:01:27.643Z,18.17
2022-10-10T00:03:54.022Z,18.15
2022-10-10T00:09:03.693Z,18.14
2022-10-10T00:11:29.965Z,18.12
2022-10-10T00:13:56.574Z,18.11
2022-10-10T00:16:22.982Z,18.10
2022-10-10T00:18:49.279Z,18.10
2022-10-10T00:21:15.476Z,18.08
2022-10-10T00:23:41.715Z,18.06
2022-10-10T00:26:09.174Z,18.04
2022-10-10T00:28:35.620Z,18.04
2022-10-10T00:31:01.849Z,18.02
2022-10-10T00:33:28.909Z,18.02
2022-10-10T00:35:55.230Z,18.01
2022-10-10T00:38:21.483Z,17.99
2022-10-10T00:40:47.730Z,17.97
2022-10-10T00:43:14.001Z,17.96
2022-10-10T00:45:40.232Z,17.95
2022-10-10T00:48:06.422Z,17.94
2022-10-10T00:50:32.622Z,17.93
2022-10-10T00:52:58.829Z,17.93
2022-10-10T00:55:25.210Z,17.92
2022-10-10T00:57:51.466Z,17.89
2022-10-10T01:00:17.958Z,17.88
2022-10-10T01:02:44.184Z,17.88
2022-10-10T01:05:11.198Z,17.86
2022-10-10T01:07:38.488Z,17.86
2022-10-10T01:10:04.721Z,17.85
2022-10-10T01:12:31.457Z,17.84
2022-10-10T01:14:57.663Z,17.84
2022-10-10T01:17:24.122Z,17.83
2022-10-10T01:19:50.352Z,17.82
2022-10-10T01:22:18.586Z,17.80
2022-10-10T01:24:44.909Z,17.80
2022-10-10T01:27:12.428Z,17.79
2022-10-10T01:29:38.624Z,17.77
2022-10-10T01:32:04.944Z,17.78
2022-10-10T01:34:31.173Z,17.76
2022-10-10T01:36:57.386Z,17.75
2022-10-10T01:39:23.575Z,17.74
2022-10-10T01:41:50.153Z,17.74
2022-10-10T01:44:20.376Z,17.73
2022-10-10T01:46:46.925Z,17.72
2022-10-10T01:49:13.163Z,17.71
2022-10-10T01:51:39.364Z,17.69
2022-10-10T01:54:05.649Z,17.69
2022-10-10T01:56:32.234Z,17.69
2022-10-10T01:58:58.439Z,17.66
2022-10-10T02:01:24.654Z,17.65
2022-10-10T02:03:51.021Z,17.64
2022-10-10T02:06:17.322Z,17.64
2022-10-10T02:08:43.573Z,17.62
2022-10-10T02:11:10.008Z,17.62
2022-10-10T02:13:36.711Z,17.61
2022-10-10T02:16:05.072Z,17.61
2022-10-10T02:18:31.645Z,17.59
2022-10-10T02:20:57.831Z,17.57
2022-10-10T02:23:24.108Z,17.56
2022-10-10T02:28:47.312Z,17.54
2022-10-10T02:31:13.507Z,17.54
2022-10-10T02:33:39.692Z,17.53
2022-10-10T02:36:05.899Z,17.52
2022-10-10T02:38:32.094Z,17.51
2022-10-10T02:40:58.288Z,17.51
2022-10-10T02:43:24.477Z,17.50
2022-10-10T02:45:51.242Z,17.49
2022-10-10T02:48:17.484Z,17.49
2022-10-10T02:50:43.858Z,17.47
2022-10-10T02:53:10.282Z,17.47
2022-10-10T02:55:36.466Z,17.46
2022-10-10T02:58:02.665Z,17.45
2022-10-10T03:00:28.877Z,17.44
2022-10-10T03:02:55.132Z,17.43
2022-10-10T03:05:21.397Z,17.43
2022-10-10T03:07:47.635Z,17.41
2022-10-10T03:10:13.888Z,17.40
2022-10-10T03:12:40.112Z,17.40
2022-10-10T03:15:11.234Z,17.39
2022-10-10T03:17:37.819Z,17.38
2022-10-10T03:20:04.027Z,17.37
2022-10-10T03:22:30.675Z,17.37
2022-10-10T03:24:57.705Z,17.36
2022-10-10T03:27:23.948Z,17.34
2022-10-10T03:29:50.186Z,17.34
2022-10-10T03:32:16.390Z,17.33
2022-10-10T03:34:42.617Z,17.31
2022-10-10T03:37:08.796Z,17.31
2022-10-10T03:39:35.283Z,17.30
2022-10-10T03:42:01.603Z,17.30
2022-10-10T03:44:27.904Z,17.27
2022-10-10T03:46:54.560Z,17.27
2022-10-10T03:49:20.774Z,17.26
2022-10-10T03:51:47.016Z,17.24
2022-10-10T03:54:13.266Z,17.23
2022-10-10T03:56:39.654Z,17.23
2022-10-10T03:59:05.842Z,17.22
2022-10-10T04:01:32.110Z,17.21
2022-10-10T04:03:58.728Z,17.20
2022-10-10T04:06:24.995Z,17.19
2022-10-10T04:08:51.222Z,17.18
2022-10-10T04:11:17.451Z,17.17
2022-10-10T04:13:44.690Z,17.16
2022-10-10T04:16:12.197Z,17.14
2022-10-10T04:18:38.656Z,17.14
2022-10-10T04:21:04.936Z,17.13
2022-10-10T04:23:31.182Z,17.11
2022-10-10T04:25:57.367Z,17.10
2022-10-10T04:28:23.706Z,17.10
2022-10-10T04:30:50.052Z,17.09
2022-10-10T04:33:16.248Z,17.08
2022-10-10T04:35:42.526Z,17.07
2022-10-10T04:38:08.715Z,17.06
2022-10-10T04:40:35.301Z,17.05
2022-10-10T04:43:01.531Z,17.03
2022-10-10T04:45:27.772Z,17.02
2022-10-10T04:47:54.043Z,17.01
2022-10-10T04:50:20.374Z,17.00
2022-10-10T04:52:47.429Z,17.00
2022-10-10T04:55:13.680Z,17.00
2022-10-10T04:57:39.971Z,16.98
2022-10-10T05:00:06.294Z,16.97
2022-10-10T05:02:32.888Z,16.95
2022-10-10T05:05:00.186Z,16.95
2022-10-10T05:07:26.423Z,16.94
2022-10-10T05:09:52.643Z,16.93
2022-10-10T05:12:18.839Z,16.92
2022-10-10T05:14:48.086Z,16.91
2022-10-10T05:17:14.646Z,16.91
2022-10-10T05:19:41.404Z,16.89
2022-10-10T05:22:08.149Z,16.90
2022-10-10T05:24:34.528Z,16.88
2022-10-10T05:27:00.736Z,16.87
2022-10-10T05:29:26.950Z,16.86
2022-10-10T05:31:55.644Z,16.85
2022-10-10T05:34:21.856Z,16.84
2022-10-10T05:36:48.208Z,16.85
2022-10-10T05:39:14.736Z,16.83
2022-10-10T05:41:41.103Z,16.82
2022-10-10T05:44:07.583Z,16.82
2022-10-10T05:46:33.872Z,16.82
2022-10-10T05:49:00.202Z,16.81
2022-10-10T05:51:26.506Z,16.81
2022-10-10T05:53:52.721Z,16.80
2022-10-10T05:56:20.852Z,16.80
2022-10-10T05:58:47.127Z,16.80
2022-10-10T06:01:13.327Z,16.80
2022-10-10T06:03:39.515Z,16.85
2022-10-10T06:06:07.199Z,16.99
2022-10-10T06:08:33.584Z,17.03
2022-10-10T06:10:59.776Z,16.98
2022-10-10T06:13:26.038Z,16.99
2022-10-10T06:15:52.676Z,17.13
2022-10-10T06:18:18.908Z,17.33
2022-10-10T06:20:45.184Z,17.47
2022-10-10T06:23:11.414Z,17.57
2022-10-10T06:25:41.757Z,17.67
2022-10-10T06:28:08.429Z,17.76
2022-10-10T06:30:35.443Z,17.84
2022-10-10T06:33:01.781Z,17.90
2022-10-10T06:35:28.084Z,17.81
2022-10-10T06:37:54.372Z,17.70
2022-10-10T06:40:21.113Z,17.67
2022-10-10T06:42:47.363Z,17.93
2022-10-10T06:45:13.609Z,18.22
2022-10-10T06:47:39.900Z,18.36
2022-10-10T06:50:06.081Z,18.51
2022-10-10T06:52:32.275Z,18.65
2022-10-10T06:54:58.612Z,18.75
2022-10-10T06:57:24.825Z,18.91
2022-10-10T06:59:53.455Z,19.03
2022-10-10T07:02:19.661Z,19.17
2022-10-10T07:04:45.884Z,19.29
2022-10-10T07:07:12.200Z,19.40
2022-10-10T07:09:38.404Z,19.53
2022-10-10T07:12:06.779Z,19.64
2022-10-10T07:14:32.981Z,19.76
2022-10-10T07:16:59.356Z,19.87
2022-10-10T07:19:25.693Z,20.00
2022-10-10T07:21:52.664Z,20.10
2022-10-10T07:24:18.889Z,20.23
2022-10-10T07:26:46.352Z,20.34
2022-10-10T07:29:13.005Z,20.47
2022-10-10T07:31:39.197Z,20.59
2022-10-10T07:34:05.410Z,20.70
2022-10-10T07:36:31.660Z,20.81
2022-10-10T07:38:59.428Z,20.91
2022-10-10T07:41:25.702Z,21.01
2022-10-10T07:43:52.026Z,21.10
2022-10-10T07:46:18.308Z,21.20
2022-10-10T07:48:44.917Z,21.32
2022-10-10T07:51:11.163Z,21.42
2022-10-10T07:53:37.423Z,21.53
2022-10-10T07:56:04.123Z,21.66
2022-10-10T07:58:31.739Z,21.83
2022-10-10T08:00:58.117Z,22.00
2022-10-10T08:03:24.389Z,22.17
2022-10-10T08:05:51.938Z,22.34
2022-10-10T08:08:18.725Z,22.50
2022-10-10T08:10:44.943Z,22.65
2022-10-10T08:13:11.544Z,22.82
2022-10-10T08:15:37.755Z,22.97
2022-10-10T08:18:04.429Z,23.11
2022-10-10T08:20:30.775Z,23.25
2022-10-10T08:22:57.208Z,23.42
2022-10-10T08:25:23.716Z,23.56
2022-10-10T08:27:49.958Z,23.72
2022-10-10T08:30:16.510Z,23.89
2022-10-10T08:32:43.066Z,24.01
2022-10-10T08:35:09.283Z,24.13
2022-10-10T08:37:37.515Z,24.22
2022-10-10T08:40:05.016Z,24.28
2022-10-10T08:42:31.203Z,24.33
2022-10-10T08:44:59.106Z,24.36
2022-10-10T08:47:25.342Z,24.34
2022-10-10T08:49:53.166Z,24.27
2022-10-10T08:52:20.511Z,24.14
2022-10-10T08:54:46.832Z,23.85
2022-10-10T08:57:13.274Z,23.37
2022-10-10T08:59:39.520Z,22.98
2022-10-10T09:02:17.616Z,22.84
2022-10-10T09:04:45.603Z,22.78
2022-10-10T09:07:11.868Z,22.78
2022-10-10T09:09:38.077Z,22.79
2022-10-10T09:12:05.564Z,22.83
2022-10-10T09:14:31.767Z,22.86
2022-10-10T09:16:57.957Z,22.86
2022-10-10T09:19:24.408Z,22.85
2022-10-10T09:21:50.800Z,22.87
2022-10-10T09:24:17.176Z,22.88
2022-10-10T09:26:43.643Z,22.91
2022-10-10T09:29:11.030Z,22.93
2022-10-10T09:31:37.968Z,22.95
2022-10-10T09:34:04.920Z,22.96
2022-10-10T09:36:32.479Z,22.99
2022-10-10T09:38:58.706Z,23.01
2022-10-10T09:41:25.097Z,23.02
2022-10-10T09:43:51.379Z,23.04
2022-10-10T09:46:17.719Z,23.06
2022-10-10T09:48:44.063Z,23.08
2022-10-10T09:51:11.895Z,23.10
2022-10-10T09:53:39.762Z,23.11
2022-10-10T09:56:06.665Z,23.11
2022-10-10T09:58:32.923Z,23.13
2022-10-10T10:00:59.274Z,23.14
2022-10-10T10:03:26.730Z,23.15
2022-10-10T10:05:54.187Z,23.17
2022-10-10T10:08:20.539Z,23.19
2022-10-10T10:10:47.768Z,23.22
2022-10-10T10:13:14.100Z,23.24
2022-10-10T10:15:40.755Z,23.26
2022-10-10T10:18:07.004Z,23.29
2022-10-10T10:20:33.265Z,23.31
2022-10-10T10:23:01.907Z,23.35
2022-10-10T10:25:30.628Z,23.38
2022-10-10T10:27:58.016Z,23.43
2022-10-10T10:30:24.251Z,23.46
2022-10-10T10:32:50.533Z,23.50
2022-10-10T10:35:17.081Z,23.52
2022-10-10T10:37:43.302Z,23.55
2022-10-10T10:40:09.519Z,23.57
2022-10-10T10:42:35.797Z,23.59
2022-10-10T10:45:02.130Z,23.61
2022-10-10T10:47:28.385Z,23.62
2022-10-10T10:49:54.894Z,23.64
2022-10-10T10:52:21.181Z,23.67
2022-10-10T10:54:47.859Z,23.69
2022-10-10T10:57:31.853Z,23.71
2022-10-10T11:00:26.256Z,23.73
2022-10-10T11:02:59.683Z,23.75
2022-10-10T11:05:39.801Z,23.79
2022-10-10T11:08:07.688Z,23.81
2022-10-10T11:10:35.200Z,23.83
2022-10-10T11:13:01.515Z,23.83
2022-10-10T11:15:37.618Z,23.87
2022-10-10T11:18:14.351Z,23.90
2022-10-10T11:20:40.634Z,23.91
2022-10-10T11:23:09.225Z,23.92
2022-10-10T11:25:35.811Z,23.94
2022-10-10T11:28:02.022Z,23.96
2022-10-10T11:30:28.789Z,23.97
2022-10-10T11:32:55.277Z,23.98
2022-10-10T11:35:22.658Z,24.00
2022-10-10T11:37:49.452Z,23.98
2022-10-10T11:40:15.773Z,23.97
2022-10-10T11:42:42.222Z,23.99
2022-10-10T11:45:08.426Z,24.01
2022-10-10T11:47:34.759Z,24.02
2022-10-10T11:50:01.817Z,24.02
2022-10-10T11:52:34.211Z,24.04
2022-10-10T11:55:01.022Z,24.06
2022-10-10T11:57:27.315Z,24.06
2022-10-10T11:59:53.729Z,24.06
2022-10-10T12:02:24.411Z,24.07
2022-10-10T12:04:53.537Z,24.08
2022-10-10T12:07:19.830Z,24.08
2022-10-10T12:09:46.367Z,24.10
2022-10-10T12:12:12.974Z,24.12
2022-10-10T12:14:39.215Z,24.13
2022-10-10T12:17:09.435Z,24.13
2022-10-10T12:19:37.192Z,24.13
2022-10-10T12:22:03.719Z,24.15
2022-10-10T12:24:29.966Z,24.16
2022-10-10T12:26:56.587Z,24.17
2022-10-10T12:29:23.228Z,24.16
2022-10-10T12:31:49.590Z,24.15
2022-10-10T12:34:15.862Z,24.15
2022-10-10T12:36:42.102Z,24.16
2022-10-10T12:39:08.286Z,24.16
2022-10-10T12:41:34.725Z,24.15
2022-10-10T12:44:01.008Z,24.15
2022-10-10T12:46:28.534Z,24.12
2022-10-10T12:48:54.775Z,24.13
2022-10-10T12:51:21.039Z,24.13
2022-10-10T12:53:47.774Z,24.12
2022-10-10T12:56:14.234Z,24.12
2022-10-10T12:58:40.751Z,24.15
2022-10-10T13:01:07.395Z,24.17
2022-10-10T13:03:33.914Z,24.17
2022-10-10T13:06:00.122Z,24.14
2022-10-10T13:08:26.802Z,24.16
2022-10-10T13:10:53.397Z,24.14
2022-10-10T13:13:19.719Z,24.12
2022-10-10T13:15:46.011Z,24.10
2022-10-10T13:18:12.248Z,24.09
2022-10-10T13:20:39.788Z,24.07
2022-10-10T13:23:05.979Z,24.07
2022-10-10T13:25:32.529Z,24.08
2022-10-10T13:27:58.769Z,24.04
2022-10-10T13:30:25.062Z,24.05
2022-10-10T13:32:51.759Z,24.03
2022-10-10T13:35:18.960Z,24.04
2022-10-10T13:37:45.641Z,24.04
2022-10-10T13:40:11.902Z,24.02
2022-10-10T13:42:38.105Z,24.00
2022-10-10T13:45:05.704Z,24.00
2022-10-10T13:47:33.431Z,24.00
2022-10-10T13:50:00.052Z,23.98
2022-10-10T13:52:27.394Z,23.96
2022-10-10T13:54:53.726Z,23.95
2022-10-10T13:57:24.595Z,23.93
2022-10-10T13:59:51.244Z,23.91
2022-10-10T14:02:17.520Z,23.88
2022-10-10T14:04:44.000Z,23.89
2022-10-10T14:07:10.727Z,23.87
2022-10-10T14:09:37.267Z,23.85
2022-10-10T14:12:03.996Z,23.84
2022-10-10T14:14:30.217Z,23.81
2022-10-10T14:16:57.490Z,23.78
2022-10-10T14:19:23.727Z,23.76
2022-10-10T14:21:50.273Z,23.76
2022-10-10T14:24:16.622Z,23.75
2022-10-10T14:26:45.250Z,23.74
2022-10-10T14:29:11.657Z,23.71
2022-10-10T14:31:37.861Z,23.71
2022-10-10T14:34:04.432Z,23.69
2022-10-10T14:36:30.692Z,23.68
2022-10-10T14:38:57.615Z,23.66
2022-10-10T14:41:23.958Z,23.64
2022-10-10T14:43:50.161Z,23.62
2022-10-10T14:46:16.506Z,23.61
2022-10-10T14:48:42.813Z,23.59
2022-10-10T14:51:33.683Z,23.57
2022-10-10T14:54:13.415Z,23.54
2022-10-10T14:57:08.653Z,23.42
2022-10-10T14:59:49.405Z,23.51
2022-10-10T15:02:13.027Z,23.49
2022-10-10T15:04:39.259Z,23.47
2022-10-10T15:07:13.499Z,23.48
2022-10-10T15:09:44.920Z,23.46
2022-10-10T15:12:18.765Z,23.45
2022-10-10T15:14:45.030Z,23.44
2022-10-10T15:17:11.584Z,23.43
2022-10-10T15:19:38.212Z,23.41
2022-10-10T15:22:04.437Z,23.40
2022-10-10T15:24:30.731Z,23.38
2022-10-10T15:26:58.526Z,23.37
2022-10-10T15:29:24.795Z,23.34
2022-10-10T15:31:52.909Z,23.33
2022-10-10T15:34:19.135Z,23.31
2022-10-10T15:36:47.307Z,23.28
2022-10-10T15:39:13.649Z,23.26
2022-10-10T15:41:39.884Z,23.24
2022-10-10T15:44:06.484Z,23.22
2022-10-10T15:46:32.747Z,23.19
2022-10-10T15:48:58.951Z,23.19
2022-10-10T15:51:25.204Z,23.17
2022-10-10T15:53:51.846Z,23.14
2022-10-10T15:56:19.648Z,23.12
2022-10-10T15:58:45.923Z,23.10
2022-10-10T16:01:13.522Z,23.07
2022-10-10T16:03:40.328Z,23.06
2022-10-10T16:06:06.705Z,23.03
2022-10-10T16:08:33.479Z,23.01
2022-10-10T16:11:01.479Z,22.99
2022-10-10T16:13:28.259Z,22.96
2022-10-10T16:15:54.518Z,22.94
2022-10-10T16:18:20.771Z,22.92
2022-10-10T16:20:47.757Z,22.89
2022-10-10T16:23:14.119Z,22.87
2022-10-10T16:25:40.326Z,22.84
2022-10-10T16:28:06.563Z,22.83
2022-10-10T16:30:32.876Z,22.80
2022-10-10T16:33:00.455Z,22.77
2022-10-10T16:35:26.746Z,22.76
2022-10-10T16:37:52.981Z,22.72
2022-10-10T16:40:19.241Z,22.69
2022-10-10T16:42:45.414Z,22.67
2022-10-10T16:45:11.649Z,22.64
2022-10-10T16:47:37.900Z,22.62
2022-10-10T16:50:04.351Z,22.60
2022-10-10T16:52:31.975Z,22.58
2022-10-10T16:54:58.273Z,22.56
2022-10-10T16:57:24.480Z,22.52
2022-10-10T16:59:50.850Z,22.50
2022-10-10T17:02:17.190Z,22.48
2022-10-10T17:04:43.672Z,22.46
2022-10-10T17:07:09.987Z,22.44
2022-10-10T17:09:36.209Z,22.42
2022-10-10T17:12:02.671Z,22.38
2022-10-10T17:14:29.382Z,22.37
2022-10-10T17:17:12.868Z,22.34
2022-10-10T17:19:39.644Z,22.32
2022-10-10T17:22:05.925Z,22.30
2022-10-10T17:24:32.195Z,22.27
2022-10-10T17:26:58.705Z,22.25
2022-10-10T17:29:25.028Z,22.23
2022-10-10T17:31:51.510Z,22.21
2022-10-10T17:34:19.974Z,22.19
2022-10-10T17:36:46.392Z,22.17
2022-10-10T17:39:12.607Z,22.16
2022-10-10T17:41:39.055Z,22.14
2022-10-10T17:44:05.326Z,22.11
2022-10-10T17:46:36.199Z,22.09
2022-10-10T17:49:03.540Z,22.06
2022-10-10T17:51:30.081Z,22.05
2022-10-10T17:53:56.563Z,22.03
2022-10-10T17:56:24.352Z,22.01
2022-10-10T17:58:50.904Z,22.00
2022-10-10T18:01:17.181Z,21.98
2022-10-10T18:03:43.533Z,21.96
2022-10-10T18:06:11.119Z,21.93
2022-10-10T18:08:37.551Z,21.92
2022-10-10T18:11:08.531Z,21.91
2022-10-10T18:13:38.247Z,21.89
2022-10-10T18:16:07.197Z,21.88
2022-10-10T18:18:33.666Z,21.86
2022-10-10T18:21:00.080Z,21.84
2022-10-10T18:23:26.666Z,21.82
2022-10-10T18:25:53.047Z,21.81
2022-10-10T18:28:19.289Z,21.80
2022-10-10T18:30:45.575Z,21.78
2022-10-10T18:33:11.783Z,21.76
2022-10-10T18:35:38.149Z,21.74
2022-10-10T18:38:04.440Z,21.73
2022-10-10T18:40:31.413Z,21.72
2022-10-10T18:42:57.764Z,21.71
2022-10-10T18:45:24.069Z,21.70
2022-10-10T18:47:50.353Z,21.67
2022-10-10T18:50:16.675Z,21.67
2022-10-10T18:52:42.927Z,21.66
2022-10-10T18:55:10.693Z,21.65
2022-10-10T18:57:40.392Z,21.64
2022-10-10T19:00:07.085Z,21.62
2022-10-10T19:02:33.845Z,21.61
2022-10-10T19:05:00.089Z,21.60
2022-10-10T19:07:26.583Z,21.59
2022-10-10T19:09:52.945Z,21.58
2022-10-10T19:12:19.271Z,21.57
2022-10-10T19:14:45.503Z,21.56
2022-10-10T19:17:11.681Z,21.54
2022-10-10T19:19:37.935Z,21.52
2022-10-10T19:22:04.555Z,21.53
2022-10-10T19:24:30.927Z,21.52
2022-10-10T19:26:57.242Z,21.49
2022-10-10T19:29:26.504Z,21.48
2022-10-10T19:31:52.778Z,21.47
2022-10-10T19:34:19.010Z,21.46
2022-10-10T19:36:45.520Z,21.45
2022-10-10T19:39:12.109Z,21.44
2022-10-10T19:41:38.310Z,21.42
2022-10-10T19:44:04.612Z,21.41
2022-10-10T19:46:32.855Z,21.40
2022-10-10T19:49:02.286Z,21.38
2022-10-10T19:51:28.641Z,21.37
2022-10-10T19:53:54.901Z,21.36
2022-10-10T19:56:21.145Z,21.34
2022-10-10T19:58:48.176Z,21.33
2022-10-10T20:01:14.432Z,21.33
2022-10-10T20:03:41.091Z,21.30
2022-10-10T20:06:07.550Z,21.30
2022-10-10T20:08:34.781Z,21.27
2022-10-10T20:11:01.037Z,21.27
2022-10-10T20:13:27.262Z,21.25
2022-10-10T20:15:54.994Z,21.26
2022-10-10T20:18:21.471Z,21.23
2022-10-10T20:20:47.674Z,21.22
2022-10-10T20:23:13.943Z,21.20
2022-10-10T20:25:40.134Z,21.19
2022-10-10T20:28:06.695Z,21.19
2022-10-10T20:30:32.984Z,21.17
2022-10-10T20:32:59.400Z,21.15
2022-10-10T20:35:26.536Z,21.14
2022-10-10T20:37:52.777Z,21.13
2022-10-10T20:40:19.027Z,21.11
2022-10-10T20:42:45.452Z,21.09
2022-10-10T20:45:14.835Z,21.08
2022-10-10T20:47:41.066Z,21.07
2022-10-10T20:50:07.395Z,21.06
2022-10-10T20:52:33.643Z,21.06
2022-10-10T20:55:00.613Z,21.04
2022-10-10T20:57:27.843Z,21.03
2022-10-10T20:59:54.086Z,21.02
2022-10-10T21:02:20.321Z,21.01
2022-10-10T21:04:46.540Z,21.00
2022-10-10T21:07:12.892Z,20.99
2022-10-10T21:09:39.104Z,20.98
2022-10-10T21:12:05.380Z,20.96
2022-10-10T21:14:32.193Z,20.95
2022-10-10T21:16:58.427Z,20.95
2022-10-10T21:19:24.644Z,20.94
2022-10-10T21:21:50.891Z,20.93
2022-10-10T21:24:17.241Z,20.91
2022-10-10T21:26:44.195Z,20.90
2022-10-10T21:29:10.441Z,20.89
2022-10-10T21:31:36.668Z,20.88
2022-10-10T21:34:02.951Z,20.87
2022-10-10T21:36:29.298Z,20.86
2022-10-10T21:38:55.492Z,20.85
2022-10-10T21:41:21.714Z,20.84
2022-10-10T21:43:48.167Z,20.84
2022-10-10T21:46:14.464Z,20.82
2022-10-10T21:48:40.711Z,20.80
2022-10-10T21:51:06.934Z,20.79
2022-10-10T21:53:33.373Z,20.78
2022-10-10T21:55:59.830Z,20.78
2022-10-10T21:58:26.074Z,20.77
2022-10-10T22:00:53.154Z,20.75
2022-10-10T22:03:19.373Z,20.74
2022-10-10T22:05:45.556Z,20.73
2022-10-10T22:08:11.778Z,20.71
2022-10-10T22:10:38.249Z,20.69
2022-10-10T22:13:04.583Z,20.68
2022-10-10T22:15:31.158Z,20.68
2022-10-10T22:17:57.959Z,20.66
2022-10-10T22:20:24.477Z,20.64
2022-10-10T22:22:50.951Z,20.63
2022-10-10T22:25:17.294Z,20.61
2022-10-10T22:27:43.573Z,20.59
2022-10-10T22:30:09.833Z,20.42
2022-10-10T22:32:36.163Z,20.57
2022-10-10T22:35:02.491Z,20.55
2022-10-10T22:37:29.497Z,20.53
2022-10-10T22:39:56.001Z,20.52
2022-10-10T22:42:22.316Z,20.51
2022-10-10T22:44:48.551Z,20.48
2022-10-10T22:47:14.770Z,20.47
2022-10-10T22:49:40.995Z,20.45
2022-10-10T22:52:07.327Z,20.44
2022-10-10T22:54:35.021Z,20.41
2022-10-10T22:57:01.687Z,20.40
2022-10-10T22:59:27.984Z,20.39
2022-10-10T23:01:54.238Z,20.37
2022-10-10T23:04:20.513Z,20.35
2022-10-10T23:06:46.795Z,20.33
2022-10-10T23:09:13.054Z,20.31
2022-10-10T23:11:39.311Z,20.29
2022-10-10T23:14:05.497Z,20.27
2022-10-10T23:16:40.712Z,20.24
2022-10-10T23:19:07.288Z,20.23
2022-10-10T23:21:33.669Z,20.19
2022-10-10T23:24:00.039Z,20.17
2022-10-10T23:26:26.684Z,20.15
2022-10-10T23:28:53.074Z,20.13
2022-10-10T23:31:19.366Z,20.12
2022-10-10T23:33:45.669Z,20.09
2022-10-10T23:36:12.004Z,20.08
2022-10-10T23:38:38.671Z,20.06
2022-10-10T23:41:06.123Z,20.05
2022-10-10T23:43:32.320Z,20.03
2022-10-10T23:45:59.011Z,20.00
2022-10-10T23:48:25.196Z,19.99
2022-10-10T23:50:51.474Z,19.96
2022-10-10T23:53:18.578Z,19.93
2022-10-10T23:55:45.524Z,19.92
2022-10-10T23:58:11.805Z,19.89
